sensor_id;sensor_type;location;lat;lon;timestamp;P1;durP1;ratioP1;P2;durP2;ratioP2
69126;SDS011;56688;50.234;19.292;2023-06-24T00:00:22;3.80;;;2.10;;
69126;SDS011;56688;50.234;19.292;2023-06-24T00:02:49;4.60;;;2.50;;
69126;SDS011;56688;50.234;19.292;2023-06-24T00:05:17;3.90;;;2.30;;
69126;SDS011;56688;50.234;19.292;2023-06-24T00:07:44;4.40;;;2.60;;
69126;SDS011;56688;50.234;19.292;2023-06-24T00:10:13;5.20;;;2.60;;
69126;SDS011;56688;50.234;19.292;2023-06-24T00:12:42;3.40;;;2.60;;
69126;SDS011;56688;50.234;19.292;2023-06-24T00:15:09;4.40;;;2.30;;
69126;SDS011;56688;50.234;19.292;2023-06-24T00:17:37;10.40;;;2.70;;
69126;SDS011;56688;50.234;19.292;2023-06-24T00:20:04;5.70;;;2.30;;
69126;SDS011;56688;50.234;19.292;2023-06-24T00:22:34;4.20;;;2.20;;
69126;SDS011;56688;50.234;19.292;2023-06-24T00:25:01;2.50;;;2.20;;
69126;SDS011;56688;50.234;19.292;2023-06-24T00:27:28;5.60;;;3.00;;
69126;SDS011;56688;50.234;19.292;2023-06-24T00:29:54;3.20;;;2.70;;
69126;SDS011;56688;50.234;19.292;2023-06-24T00:32:22;4.10;;;2.90;;
69126;SDS011;56688;50.234;19.292;2023-06-24T00:34:48;4.30;;;2.80;;
69126;SDS011;56688;50.234;19.292;2023-06-24T00:37:17;5.90;;;3.20;;
69126;SDS011;56688;50.234;19.292;2023-06-24T00:39:44;3.20;;;2.50;;
69126;SDS011;56688;50.234;19.292;2023-06-24T00:42:11;4.30;;;2.50;;
69126;SDS011;56688;50.234;19.292;2023-06-24T00:44:37;4.60;;;2.60;;
69126;SDS011;56688;50.234;19.292;2023-06-24T00:47:06;3.40;;;2.60;;
69126;SDS011;56688;50.234;19.292;2023-06-24T00:49:34;3.50;;;2.60;;
69126;SDS011;56688;50.234;19.292;2023-06-24T00:52:01;4.70;;;2.60;;
69126;SDS011;56688;50.234;19.292;2023-06-24T00:54:28;3.90;;;2.90;;
69126;SDS011;56688;50.234;19.292;2023-06-24T00:56:58;4.70;;;3.50;;
69126;SDS011;56688;50.234;19.292;2023-06-24T00:59:26;4.40;;;2.80;;
69126;SDS011;56688;50.234;19.292;2023-06-24T01:01:56;3.50;;;2.80;;
69126;SDS011;56688;50.234;19.292;2023-06-24T01:04:24;7.20;;;3.10;;
69126;SDS011;56688;50.234;19.292;2023-06-24T01:06:52;6.10;;;3.20;;
69126;SDS011;56688;50.234;19.292;2023-06-24T01:09:19;4.40;;;3.20;;
69126;SDS011;56688;50.234;19.292;2023-06-24T01:11:47;6.90;;;3.20;;
69126;SDS011;56688;50.234;19.292;2023-06-24T01:14:15;4.60;;;3.30;;
69126;SDS011;56688;50.234;19.292;2023-06-24T01:33:32;4.20;;;2.90;;
69126;SDS011;56688;50.234;19.292;2023-06-24T01:36:06;5.70;;;3.50;;
69126;SDS011;56688;50.234;19.292;2023-06-24T01:38:36;4.30;;;3.10;;
69126;SDS011;56688;50.234;19.292;2023-06-24T01:43:41;4.00;;;3.10;;
69126;SDS011;56688;50.234;19.292;2023-06-24T01:46:09;3.80;;;3.20;;
69126;SDS011;56688;50.234;19.292;2023-06-24T01:48:39;4.70;;;3.10;;
69126;SDS011;56688;50.234;19.292;2023-06-24T01:51:13;8.70;;;3.70;;
69126;SDS011;56688;50.234;19.292;2023-06-24T01:53:48;4.80;;;3.80;;
69126;SDS011;56688;50.234;19.292;2023-06-24T01:56:19;5.70;;;3.20;;
69126;SDS011;56688;50.234;19.292;2023-06-24T01:58:48;4.50;;;3.40;;
69126;SDS011;56688;50.234;19.292;2023-06-24T02:01:18;5.20;;;3.60;;
69126;SDS011;56688;50.234;19.292;2023-06-24T02:03:47;6.60;;;3.20;;
69126;SDS011;56688;50.234;19.292;2023-06-24T02:06:16;8.20;;;3.30;;
69126;SDS011;56688;50.234;19.292;2023-06-24T02:08:45;4.00;;;2.90;;
69126;SDS011;56688;50.234;19.292;2023-06-24T02:11:15;3.60;;;3.10;;
69126;SDS011;56688;50.234;19.292;2023-06-24T02:13:43;5.80;;;3.80;;
69126;SDS011;56688;50.234;19.292;2023-06-24T02:16:14;4.50;;;3.20;;
69126;SDS011;56688;50.234;19.292;2023-06-24T02:18:44;4.40;;;3.40;;
69126;SDS011;56688;50.234;19.292;2023-06-24T02:21:11;6.80;;;3.10;;
69126;SDS011;56688;50.234;19.292;2023-06-24T02:23:39;3.80;;;2.90;;
69126;SDS011;56688;50.234;19.292;2023-06-24T02:26:06;7.10;;;2.80;;
69126;SDS011;56688;50.234;19.292;2023-06-24T02:28:34;4.80;;;2.70;;
69126;SDS011;56688;50.234;19.292;2023-06-24T02:31:01;3.30;;;2.50;;
69126;SDS011;56688;50.234;19.292;2023-06-24T02:33:29;6.10;;;2.90;;
69126;SDS011;56688;50.234;19.292;2023-06-24T02:35:56;4.50;;;2.80;;
69126;SDS011;56688;50.234;19.292;2023-06-24T02:38:23;5.30;;;3.00;;
69126;SDS011;56688;50.234;19.292;2023-06-24T02:40:54;4.50;;;2.90;;
69126;SDS011;56688;50.234;19.292;2023-06-24T02:43:21;5.40;;;3.40;;
69126;SDS011;56688;50.234;19.292;2023-06-24T02:45:48;5.60;;;3.40;;
69126;SDS011;56688;50.234;19.292;2023-06-24T02:48:17;4.80;;;3.50;;
69126;SDS011;56688;50.234;19.292;2023-06-24T02:50:45;6.20;;;3.50;;
69126;SDS011;56688;50.234;19.292;2023-06-24T02:53:14;4.70;;;3.60;;
69126;SDS011;56688;50.234;19.292;2023-06-24T02:55:42;6.70;;;3.70;;
69126;SDS011;56688;50.234;19.292;2023-06-24T02:58:10;6.70;;;3.60;;
69126;SDS011;56688;50.234;19.292;2023-06-24T03:00:38;6.00;;;3.50;;
69126;SDS011;56688;50.234;19.292;2023-06-24T03:03:09;5.80;;;3.70;;
69126;SDS011;56688;50.234;19.292;2023-06-24T03:05:48;6.50;;;3.80;;
69126;SDS011;56688;50.234;19.292;2023-06-24T03:08:18;5.70;;;3.80;;
69126;SDS011;56688;50.234;19.292;2023-06-24T03:10:47;7.70;;;4.00;;
69126;SDS011;56688;50.234;19.292;2023-06-24T03:13:18;5.40;;;3.80;;
69126;SDS011;56688;50.234;19.292;2023-06-24T03:15:50;10.30;;;4.50;;
69126;SDS011;56688;50.234;19.292;2023-06-24T03:18:18;5.80;;;3.90;;
69126;SDS011;56688;50.234;19.292;2023-06-24T03:20:45;5.10;;;3.30;;
69126;SDS011;56688;50.234;19.292;2023-06-24T03:23:16;7.00;;;3.70;;
69126;SDS011;56688;50.234;19.292;2023-06-24T03:25:43;6.60;;;4.30;;
69126;SDS011;56688;50.234;19.292;2023-06-24T03:28:10;7.80;;;4.80;;
69126;SDS011;56688;50.234;19.292;2023-06-24T03:30:43;7.60;;;5.20;;
69126;SDS011;56688;50.234;19.292;2023-06-24T03:33:11;6.40;;;4.70;;
69126;SDS011;56688;50.234;19.292;2023-06-24T03:35:44;8.10;;;5.90;;
69126;SDS011;56688;50.234;19.292;2023-06-24T03:38:13;8.60;;;5.00;;
69126;SDS011;56688;50.234;19.292;2023-06-24T03:40:40;6.70;;;4.40;;
69126;SDS011;56688;50.234;19.292;2023-06-24T03:43:07;7.60;;;4.70;;
69126;SDS011;56688;50.234;19.292;2023-06-24T03:45:34;12.60;;;4.70;;
69126;SDS011;56688;50.234;19.292;2023-06-24T03:48:01;8.70;;;5.00;;
69126;SDS011;56688;50.234;19.292;2023-06-24T03:50:29;12.50;;;5.90;;
69126;SDS011;56688;50.234;19.292;2023-06-24T03:52:56;10.50;;;5.90;;
69126;SDS011;56688;50.234;19.292;2023-06-24T03:55:23;9.00;;;5.60;;
69126;SDS011;56688;50.234;19.292;2023-06-24T03:57:50;11.10;;;5.40;;
69126;SDS011;56688;50.234;19.292;2023-06-24T04:00:17;9.30;;;5.20;;
69126;SDS011;56688;50.234;19.292;2023-06-24T04:02:47;10.60;;;6.20;;
69126;SDS011;56688;50.234;19.292;2023-06-24T04:05:14;12.40;;;6.00;;
69126;SDS011;56688;50.234;19.292;2023-06-24T04:07:42;9.50;;;6.30;;
69126;SDS011;56688;50.234;19.292;2023-06-24T04:12:45;11.30;;;7.00;;
69126;SDS011;56688;50.234;19.292;2023-06-24T04:15:13;17.40;;;6.80;;
69126;SDS011;56688;50.234;19.292;2023-06-24T04:17:40;12.10;;;6.30;;
69126;SDS011;56688;50.234;19.292;2023-06-24T04:20:07;11.80;;;6.20;;
69126;SDS011;56688;50.234;19.292;2023-06-24T04:22:36;10.90;;;6.20;;
69126;SDS011;56688;50.234;19.292;2023-06-24T04:25:05;9.60;;;5.90;;
69126;SDS011;56688;50.234;19.292;2023-06-24T04:27:34;10.10;;;6.10;;
69126;SDS011;56688;50.234;19.292;2023-06-24T04:30:01;11.80;;;5.80;;
69126;SDS011;56688;50.234;19.292;2023-06-24T04:32:29;12.30;;;6.40;;
69126;SDS011;56688;50.234;19.292;2023-06-24T04:34:57;15.60;;;6.00;;
69126;SDS011;56688;50.234;19.292;2023-06-24T04:37:25;14.90;;;8.40;;
69126;SDS011;56688;50.234;19.292;2023-06-24T04:39:52;15.90;;;9.70;;
69126;SDS011;56688;50.234;19.292;2023-06-24T04:42:19;15.70;;;9.20;;
69126;SDS011;56688;50.234;19.292;2023-06-24T04:44:46;23.90;;;13.20;;
69126;SDS011;56688;50.234;19.292;2023-06-24T04:47:18;20.00;;;13.90;;
69126;SDS011;56688;50.234;19.292;2023-06-24T04:49:45;27.50;;;14.50;;
69126;SDS011;56688;50.234;19.292;2023-06-24T04:52:12;24.50;;;14.30;;
69126;SDS011;56688;50.234;19.292;2023-06-24T04:54:39;20.20;;;13.20;;
69126;SDS011;56688;50.234;19.292;2023-06-24T04:57:07;20.00;;;12.70;;
69126;SDS011;56688;50.234;19.292;2023-06-24T04:59:51;22.00;;;14.30;;
69126;SDS011;56688;50.234;19.292;2023-06-24T05:02:18;23.70;;;14.80;;
69126;SDS011;56688;50.234;19.292;2023-06-24T05:04:44;25.30;;;16.30;;
69126;SDS011;56688;50.234;19.292;2023-06-24T05:07:11;25.70;;;16.30;;
69126;SDS011;56688;50.234;19.292;2023-06-24T05:09:38;24.70;;;15.60;;
69126;SDS011;56688;50.234;19.292;2023-06-24T05:12:06;22.90;;;14.60;;
69126;SDS011;56688;50.234;19.292;2023-06-24T05:14:34;22.70;;;15.00;;
69126;SDS011;56688;50.234;19.292;2023-06-24T05:17:02;22.10;;;15.20;;
69126;SDS011;56688;50.234;19.292;2023-06-24T05:19:30;26.20;;;15.80;;
69126;SDS011;56688;50.234;19.292;2023-06-24T05:21:57;16.80;;;10.40;;
69126;SDS011;56688;50.234;19.292;2023-06-24T05:24:24;21.90;;;13.60;;
69126;SDS011;56688;50.234;19.292;2023-06-24T05:26:52;23.20;;;14.60;;
69126;SDS011;56688;50.234;19.292;2023-06-24T05:29:19;26.70;;;13.40;;
69126;SDS011;56688;50.234;19.292;2023-06-24T05:31:46;21.20;;;13.60;;
69126;SDS011;56688;50.234;19.292;2023-06-24T05:34:13;24.20;;;14.70;;
69126;SDS011;56688;50.234;19.292;2023-06-24T05:36:40;25.00;;;14.20;;
69126;SDS011;56688;50.234;19.292;2023-06-24T05:39:06;25.80;;;16.10;;
69126;SDS011;56688;50.234;19.292;2023-06-24T05:41:34;23.30;;;16.60;;
69126;SDS011;56688;50.234;19.292;2023-06-24T05:44:02;27.50;;;17.80;;
69126;SDS011;56688;50.234;19.292;2023-06-24T05:46:31;26.50;;;16.40;;
69126;SDS011;56688;50.234;19.292;2023-06-24T05:48:57;23.60;;;15.40;;
69126;SDS011;56688;50.234;19.292;2023-06-24T05:51:24;22.80;;;15.40;;
69126;SDS011;56688;50.234;19.292;2023-06-24T05:53:51;24.80;;;15.50;;
69126;SDS011;56688;50.234;19.292;2023-06-24T05:56:19;21.80;;;14.80;;
69126;SDS011;56688;50.234;19.292;2023-06-24T05:58:47;18.10;;;12.10;;
69126;SDS011;56688;50.234;19.292;2023-06-24T06:01:15;18.20;;;12.80;;
69126;SDS011;56688;50.234;19.292;2023-06-24T06:03:42;23.90;;;15.00;;
69126;SDS011;56688;50.234;19.292;2023-06-24T06:06:09;22.60;;;14.80;;
69126;SDS011;56688;50.234;19.292;2023-06-24T06:08:36;23.90;;;15.50;;
69126;SDS011;56688;50.234;19.292;2023-06-24T06:11:03;24.00;;;15.60;;
69126;SDS011;56688;50.234;19.292;2023-06-24T06:13:30;21.10;;;13.20;;
69126;SDS011;56688;50.234;19.292;2023-06-24T06:15:57;25.70;;;17.10;;
69126;SDS011;56688;50.234;19.292;2023-06-24T06:18:24;26.40;;;16.40;;
69126;SDS011;56688;50.234;19.292;2023-06-24T06:20:51;26.10;;;16.00;;
69126;SDS011;56688;50.234;19.292;2023-06-24T06:23:17;27.10;;;15.10;;
69126;SDS011;56688;50.234;19.292;2023-06-24T06:25:44;22.90;;;14.30;;
69126;SDS011;56688;50.234;19.292;2023-06-24T06:28:14;22.60;;;13.70;;
69126;SDS011;56688;50.234;19.292;2023-06-24T06:30:41;24.50;;;15.90;;
69126;SDS011;56688;50.234;19.292;2023-06-24T06:33:08;24.80;;;16.10;;
69126;SDS011;56688;50.234;19.292;2023-06-24T06:35:35;19.50;;;14.30;;
69126;SDS011;56688;50.234;19.292;2023-06-24T06:38:02;17.70;;;12.70;;
69126;SDS011;56688;50.234;19.292;2023-06-24T06:40:31;23.90;;;14.40;;
69126;SDS011;56688;50.234;19.292;2023-06-24T06:42:58;22.90;;;15.20;;
69126;SDS011;56688;50.234;19.292;2023-06-24T06:45:24;24.60;;;15.40;;
69126;SDS011;56688;50.234;19.292;2023-06-24T06:47:51;21.60;;;15.10;;
69126;SDS011;56688;50.234;19.292;2023-06-24T06:50:18;24.40;;;16.10;;
69126;SDS011;56688;50.234;19.292;2023-06-24T06:52:45;21.80;;;13.90;;
69126;SDS011;56688;50.234;19.292;2023-06-24T06:55:12;21.50;;;15.40;;
69126;SDS011;56688;50.234;19.292;2023-06-24T06:57:39;16.40;;;12.70;;
69126;SDS011;56688;50.234;19.292;2023-06-24T07:00:06;17.00;;;13.00;;
69126;SDS011;56688;50.234;19.292;2023-06-24T07:02:33;16.80;;;11.80;;
69126;SDS011;56688;50.234;19.292;2023-06-24T07:05:00;16.40;;;11.00;;
69126;SDS011;56688;50.234;19.292;2023-06-24T07:07:27;16.70;;;11.50;;
69126;SDS011;56688;50.234;19.292;2023-06-24T07:09:54;13.60;;;11.10;;
69126;SDS011;56688;50.234;19.292;2023-06-24T07:12:21;17.50;;;10.70;;
69126;SDS011;56688;50.234;19.292;2023-06-24T07:14:50;14.10;;;10.60;;
69126;SDS011;56688;50.234;19.292;2023-06-24T07:17:17;13.20;;;10.00;;
69126;SDS011;56688;50.234;19.292;2023-06-24T07:19:44;20.70;;;9.90;;
69126;SDS011;56688;50.234;19.292;2023-06-24T07:22:11;13.20;;;10.00;;
69126;SDS011;56688;50.234;19.292;2023-06-24T07:24:38;13.20;;;9.50;;
69126;SDS011;56688;50.234;19.292;2023-06-24T07:27:05;12.20;;;9.50;;
69126;SDS011;56688;50.234;19.292;2023-06-24T07:29:32;11.30;;;8.50;;
69126;SDS011;56688;50.234;19.292;2023-06-24T07:31:59;15.20;;;9.40;;
69126;SDS011;56688;50.234;19.292;2023-06-24T07:34:26;15.10;;;8.80;;
69126;SDS011;56688;50.234;19.292;2023-06-24T07:36:53;11.40;;;7.70;;
69126;SDS011;56688;50.234;19.292;2023-06-24T07:39:20;15.00;;;7.90;;
69126;SDS011;56688;50.234;19.292;2023-06-24T07:41:47;9.20;;;7.40;;
69126;SDS011;56688;50.234;19.292;2023-06-24T07:44:13;10.90;;;7.40;;
69126;SDS011;56688;50.234;19.292;2023-06-24T07:46:40;12.30;;;7.90;;
69126;SDS011;56688;50.234;19.292;2023-06-24T07:49:07;11.80;;;6.90;;
69126;SDS011;56688;50.234;19.292;2023-06-24T07:51:34;13.40;;;7.00;;
69126;SDS011;56688;50.234;19.292;2023-06-24T07:54:01;11.60;;;6.80;;
69126;SDS011;56688;50.234;19.292;2023-06-24T07:56:28;10.50;;;6.70;;
69126;SDS011;56688;50.234;19.292;2023-06-24T07:58:55;8.40;;;6.20;;
69126;SDS011;56688;50.234;19.292;2023-06-24T08:01:22;7.80;;;6.50;;
69126;SDS011;56688;50.234;19.292;2023-06-24T08:03:49;8.70;;;5.90;;
69126;SDS011;56688;50.234;19.292;2023-06-24T08:06:16;10.80;;;5.40;;
69126;SDS011;56688;50.234;19.292;2023-06-24T08:08:42;10.60;;;5.80;;
69126;SDS011;56688;50.234;19.292;2023-06-24T08:11:09;9.40;;;5.10;;
69126;SDS011;56688;50.234;19.292;2023-06-24T08:13:36;8.90;;;5.80;;
69126;SDS011;56688;50.234;19.292;2023-06-24T08:16:03;9.50;;;5.80;;
69126;SDS011;56688;50.234;19.292;2023-06-24T08:18:30;6.60;;;5.20;;
69126;SDS011;56688;50.234;19.292;2023-06-24T08:20:56;7.60;;;4.80;;
69126;SDS011;56688;50.234;19.292;2023-06-24T08:23:23;9.60;;;4.50;;
69126;SDS011;56688;50.234;19.292;2023-06-24T08:25:50;13.10;;;5.70;;
69126;SDS011;56688;50.234;19.292;2023-06-24T08:28:26;10.40;;;5.40;;
69126;SDS011;56688;50.234;19.292;2023-06-24T08:30:53;8.00;;;5.40;;
69126;SDS011;56688;50.234;19.292;2023-06-24T08:33:20;9.60;;;5.50;;
69126;SDS011;56688;50.234;19.292;2023-06-24T08:35:47;8.50;;;5.10;;
69126;SDS011;56688;50.234;19.292;2023-06-24T08:38:14;7.90;;;5.90;;
69126;SDS011;56688;50.234;19.292;2023-06-24T08:40:41;7.80;;;5.70;;
69126;SDS011;56688;50.234;19.292;2023-06-24T08:43:10;7.60;;;5.30;;
69126;SDS011;56688;50.234;19.292;2023-06-24T08:45:36;8.50;;;5.50;;
69126;SDS011;56688;50.234;19.292;2023-06-24T08:48:04;10.00;;;5.60;;
69126;SDS011;56688;50.234;19.292;2023-06-24T08:50:34;7.90;;;4.90;;
69126;SDS011;56688;50.234;19.292;2023-06-24T08:53:03;10.60;;;6.20;;
69126;SDS011;56688;50.234;19.292;2023-06-24T08:55:36;13.30;;;6.00;;
69126;SDS011;56688;50.234;19.292;2023-06-24T08:58:07;8.40;;;5.50;;
69126;SDS011;56688;50.234;19.292;2023-06-24T09:00:34;8.60;;;5.80;;
69126;SDS011;56688;50.234;19.292;2023-06-24T09:03:01;7.80;;;5.90;;
69126;SDS011;56688;50.234;19.292;2023-06-24T09:05:28;7.70;;;6.20;;
69126;SDS011;56688;50.234;19.292;2023-06-24T09:07:55;9.20;;;5.80;;
69126;SDS011;56688;50.234;19.292;2023-06-24T09:13:00;10.40;;;6.00;;
69126;SDS011;56688;50.234;19.292;2023-06-24T09:15:35;8.30;;;5.50;;
69126;SDS011;56688;50.234;19.292;2023-06-24T09:18:03;11.00;;;5.70;;
69126;SDS011;56688;50.234;19.292;2023-06-24T09:20:31;7.70;;;5.40;;
69126;SDS011;56688;50.234;19.292;2023-06-24T09:23:00;8.00;;;5.90;;
69126;SDS011;56688;50.234;19.292;2023-06-24T09:25:29;11.30;;;6.10;;
69126;SDS011;56688;50.234;19.292;2023-06-24T09:28:03;11.40;;;6.30;;
69126;SDS011;56688;50.234;19.292;2023-06-24T09:30:30;8.30;;;6.10;;
69126;SDS011;56688;50.234;19.292;2023-06-24T09:32:58;10.10;;;6.90;;
69126;SDS011;56688;50.234;19.292;2023-06-24T09:35:25;10.00;;;6.90;;
69126;SDS011;56688;50.234;19.292;2023-06-24T09:37:53;9.30;;;6.20;;
69126;SDS011;56688;50.234;19.292;2023-06-24T09:40:21;8.60;;;7.10;;
69126;SDS011;56688;50.234;19.292;2023-06-24T09:42:50;7.70;;;6.10;;
69126;SDS011;56688;50.234;19.292;2023-06-24T09:45:19;7.90;;;6.40;;
69126;SDS011;56688;50.234;19.292;2023-06-24T09:47:48;8.60;;;6.40;;
69126;SDS011;56688;50.234;19.292;2023-06-24T09:50:15;9.20;;;6.20;;
69126;SDS011;56688;50.234;19.292;2023-06-24T09:52:43;9.10;;;5.90;;
69126;SDS011;56688;50.234;19.292;2023-06-24T09:55:12;13.80;;;5.90;;
69126;SDS011;56688;50.234;19.292;2023-06-24T09:57:42;7.10;;;5.60;;
69126;SDS011;56688;50.234;19.292;2023-06-24T10:00:13;8.40;;;6.20;;
69126;SDS011;56688;50.234;19.292;2023-06-24T10:02:43;9.10;;;5.90;;
69126;SDS011;56688;50.234;19.292;2023-06-24T10:05:12;9.20;;;6.10;;
69126;SDS011;56688;50.234;19.292;2023-06-24T10:07:40;8.30;;;5.20;;
69126;SDS011;56688;50.234;19.292;2023-06-24T10:10:08;6.50;;;5.40;;
69126;SDS011;56688;50.234;19.292;2023-06-24T10:12:36;7.80;;;5.20;;
69126;SDS011;56688;50.234;19.292;2023-06-24T10:15:03;7.70;;;5.80;;
69126;SDS011;56688;50.234;19.292;2023-06-24T10:17:32;7.40;;;5.30;;
69126;SDS011;56688;50.234;19.292;2023-06-24T10:20:00;8.00;;;5.10;;
69126;SDS011;56688;50.234;19.292;2023-06-24T10:22:30;12.20;;;5.30;;
69126;SDS011;56688;50.234;19.292;2023-06-24T10:24:59;8.30;;;5.20;;
69126;SDS011;56688;50.234;19.292;2023-06-24T10:27:28;6.90;;;4.90;;
69126;SDS011;56688;50.234;19.292;2023-06-24T10:30:01;12.10;;;5.30;;
69126;SDS011;56688;50.234;19.292;2023-06-24T10:35:25;8.20;;;5.20;;
69126;SDS011;56688;50.234;19.292;2023-06-24T10:37:56;6.90;;;5.60;;
69126;SDS011;56688;50.234;19.292;2023-06-24T10:45:51;8.00;;;5.40;;
69126;SDS011;56688;50.234;19.292;2023-06-24T10:48:19;8.20;;;4.80;;
69126;SDS011;56688;50.234;19.292;2023-06-24T10:50:47;6.20;;;5.10;;
69126;SDS011;56688;50.234;19.292;2023-06-24T10:53:14;5.60;;;4.60;;
69126;SDS011;56688;50.234;19.292;2023-06-24T10:55:41;7.10;;;5.10;;
69126;SDS011;56688;50.234;19.292;2023-06-24T10:58:08;8.10;;;5.00;;
69126;SDS011;56688;50.234;19.292;2023-06-24T11:00:38;7.30;;;5.20;;
69126;SDS011;56688;50.234;19.292;2023-06-24T11:03:07;8.40;;;5.70;;
69126;SDS011;56688;50.234;19.292;2023-06-24T11:05:40;7.20;;;5.90;;
69126;SDS011;56688;50.234;19.292;2023-06-24T11:08:08;5.90;;;5.30;;
69126;SDS011;56688;50.234;19.292;2023-06-24T11:10:51;10.10;;;5.30;;
69126;SDS011;56688;50.234;19.292;2023-06-24T11:13:19;6.50;;;5.40;;
69126;SDS011;56688;50.234;19.292;2023-06-24T11:15:47;6.60;;;5.60;;
69126;SDS011;56688;50.234;19.292;2023-06-24T11:18:14;10.10;;;5.70;;
69126;SDS011;56688;50.234;19.292;2023-06-24T11:20:41;7.20;;;5.80;;
69126;SDS011;56688;50.234;19.292;2023-06-24T11:23:09;5.70;;;4.90;;
69126;SDS011;56688;50.234;19.292;2023-06-24T11:25:39;10.40;;;5.70;;
69126;SDS011;56688;50.234;19.292;2023-06-24T11:30:50;6.50;;;5.60;;
69126;SDS011;56688;50.234;19.292;2023-06-24T11:36:00;8.80;;;5.50;;
69126;SDS011;56688;50.234;19.292;2023-06-24T11:38:27;8.00;;;5.90;;
69126;SDS011;56688;50.234;19.292;2023-06-24T11:40:58;9.40;;;5.80;;
69126;SDS011;56688;50.234;19.292;2023-06-24T11:43:25;10.80;;;6.00;;
69126;SDS011;56688;50.234;19.292;2023-06-24T11:45:52;9.90;;;5.50;;
69126;SDS011;56688;50.234;19.292;2023-06-24T11:48:19;6.80;;;5.30;;
69126;SDS011;56688;50.234;19.292;2023-06-24T11:50:52;11.30;;;5.00;;
69126;SDS011;56688;50.234;19.292;2023-06-24T11:53:29;6.60;;;5.30;;
69126;SDS011;56688;50.234;19.292;2023-06-24T11:55:57;8.20;;;5.40;;
69126;SDS011;56688;50.234;19.292;2023-06-24T11:58:24;6.80;;;5.40;;
69126;SDS011;56688;50.234;19.292;2023-06-24T12:00:50;9.60;;;5.50;;
69126;SDS011;56688;50.234;19.292;2023-06-24T12:03:22;6.60;;;5.10;;
69126;SDS011;56688;50.234;19.292;2023-06-24T12:05:49;7.10;;;5.60;;
69126;SDS011;56688;50.234;19.292;2023-06-24T12:08:16;6.10;;;5.10;;
69126;SDS011;56688;50.234;19.292;2023-06-24T12:10:44;5.90;;;5.20;;
69126;SDS011;56688;50.234;19.292;2023-06-24T12:13:12;6.60;;;5.20;;
69126;SDS011;56688;50.234;19.292;2023-06-24T12:15:39;6.50;;;4.80;;
69126;SDS011;56688;50.234;19.292;2023-06-24T12:18:06;7.60;;;5.50;;
69126;SDS011;56688;50.234;19.292;2023-06-24T12:20:33;9.50;;;5.20;;
69126;SDS011;56688;50.234;19.292;2023-06-24T12:23:04;7.00;;;5.20;;
69126;SDS011;56688;50.234;19.292;2023-06-24T12:25:32;9.00;;;5.30;;
69126;SDS011;56688;50.234;19.292;2023-06-24T12:27:59;9.00;;;5.40;;
69126;SDS011;56688;50.234;19.292;2023-06-24T12:30:26;7.70;;;5.40;;
69126;SDS011;56688;50.234;19.292;2023-06-24T12:32:54;9.70;;;5.70;;
69126;SDS011;56688;50.234;19.292;2023-06-24T12:35:21;8.10;;;5.00;;
69126;SDS011;56688;50.234;19.292;2023-06-24T12:37:52;9.40;;;5.30;;
69126;SDS011;56688;50.234;19.292;2023-06-24T12:40:19;7.80;;;5.70;;
69126;SDS011;56688;50.234;19.292;2023-06-24T12:42:46;6.30;;;5.00;;
69126;SDS011;56688;50.234;19.292;2023-06-24T12:45:13;6.30;;;5.20;;
69126;SDS011;56688;50.234;19.292;2023-06-24T12:47:40;8.10;;;5.80;;
69126;SDS011;56688;50.234;19.292;2023-06-24T12:50:07;9.40;;;5.90;;
69126;SDS011;56688;50.234;19.292;2023-06-24T12:52:35;7.20;;;5.30;;
69126;SDS011;56688;50.234;19.292;2023-06-24T12:55:02;5.90;;;5.30;;
69126;SDS011;56688;50.234;19.292;2023-06-24T12:57:30;10.40;;;5.60;;
69126;SDS011;56688;50.234;19.292;2023-06-24T12:59:57;7.00;;;5.60;;
69126;SDS011;56688;50.234;19.292;2023-06-24T13:02:24;6.10;;;5.30;;
69126;SDS011;56688;50.234;19.292;2023-06-24T13:04:51;5.50;;;5.00;;
69126;SDS011;56688;50.234;19.292;2023-06-24T13:07:18;7.70;;;5.50;;
69126;SDS011;56688;50.234;19.292;2023-06-24T13:09:45;6.90;;;5.70;;
69126;SDS011;56688;50.234;19.292;2023-06-24T13:12:11;9.50;;;5.50;;
69126;SDS011;56688;50.234;19.292;2023-06-24T13:14:38;6.90;;;5.30;;
69126;SDS011;56688;50.234;19.292;2023-06-24T13:17:05;7.80;;;5.30;;
69126;SDS011;56688;50.234;19.292;2023-06-24T13:19:32;7.40;;;5.00;;
69126;SDS011;56688;50.234;19.292;2023-06-24T13:21:59;5.90;;;4.70;;
69126;SDS011;56688;50.234;19.292;2023-06-24T13:24:26;6.90;;;4.30;;
69126;SDS011;56688;50.234;19.292;2023-06-24T13:26:52;5.40;;;4.40;;
69126;SDS011;56688;50.234;19.292;2023-06-24T13:29:19;6.10;;;4.10;;
69126;SDS011;56688;50.234;19.292;2023-06-24T13:31:47;5.40;;;3.90;;
69126;SDS011;56688;50.234;19.292;2023-06-24T13:34:14;4.80;;;3.80;;
69126;SDS011;56688;50.234;19.292;2023-06-24T13:36:41;4.30;;;3.90;;
69126;SDS011;56688;50.234;19.292;2023-06-24T13:39:08;4.30;;;3.90;;
69126;SDS011;56688;50.234;19.292;2023-06-24T13:41:40;5.80;;;4.20;;
69126;SDS011;56688;50.234;19.292;2023-06-24T13:44:06;5.40;;;4.10;;
69126;SDS011;56688;50.234;19.292;2023-06-24T13:46:33;6.10;;;4.30;;
69126;SDS011;56688;50.234;19.292;2023-06-24T13:49:00;4.70;;;3.90;;
69126;SDS011;56688;50.234;19.292;2023-06-24T13:51:32;5.60;;;4.20;;
69126;SDS011;56688;50.234;19.292;2023-06-24T13:53:59;6.00;;;4.20;;
69126;SDS011;56688;50.234;19.292;2023-06-24T13:56:26;5.90;;;4.00;;
69126;SDS011;56688;50.234;19.292;2023-06-24T13:58:53;5.60;;;3.80;;
69126;SDS011;56688;50.234;19.292;2023-06-24T14:01:21;5.50;;;3.80;;
69126;SDS011;56688;50.234;19.292;2023-06-24T14:03:49;4.10;;;3.70;;
69126;SDS011;56688;50.234;19.292;2023-06-24T14:06:19;8.80;;;3.90;;
69126;SDS011;56688;50.234;19.292;2023-06-24T14:08:48;7.30;;;4.20;;
69126;SDS011;56688;50.234;19.292;2023-06-24T14:11:16;5.90;;;4.30;;
69126;SDS011;56688;50.234;19.292;2023-06-24T14:13:43;6.70;;;4.60;;
69126;SDS011;56688;50.234;19.292;2023-06-24T14:16:11;6.50;;;4.10;;
69126;SDS011;56688;50.234;19.292;2023-06-24T14:18:39;5.70;;;4.00;;
69126;SDS011;56688;50.234;19.292;2023-06-24T14:57:06;6.00;;;4.60;;
69126;SDS011;56688;50.234;19.292;2023-06-24T14:59:34;6.80;;;4.00;;
69126;SDS011;56688;50.234;19.292;2023-06-24T15:02:01;5.80;;;4.60;;
69126;SDS011;56688;50.234;19.292;2023-06-24T15:04:28;5.90;;;4.90;;
69126;SDS011;56688;50.234;19.292;2023-06-24T15:06:55;6.50;;;4.00;;
69126;SDS011;56688;50.234;19.292;2023-06-24T15:09:22;3.80;;;3.40;;
69126;SDS011;56688;50.234;19.292;2023-06-24T15:11:49;3.70;;;3.30;;
69126;SDS011;56688;50.234;19.292;2023-06-24T15:14:17;4.40;;;3.50;;
69126;SDS011;56688;50.234;19.292;2023-06-24T15:16:44;5.20;;;3.70;;
69126;SDS011;56688;50.234;19.292;2023-06-24T15:19:11;6.10;;;3.70;;
69126;SDS011;56688;50.234;19.292;2023-06-24T15:21:38;7.70;;;3.40;;
69126;SDS011;56688;50.234;19.292;2023-06-24T15:24:05;4.70;;;3.70;;
69126;SDS011;56688;50.234;19.292;2023-06-24T15:26:32;5.70;;;3.80;;
69126;SDS011;56688;50.234;19.292;2023-06-24T15:28:58;4.40;;;3.50;;
69126;SDS011;56688;50.234;19.292;2023-06-24T15:31:25;4.40;;;3.80;;
69126;SDS011;56688;50.234;19.292;2023-06-24T15:33:52;4.20;;;3.70;;
69126;SDS011;56688;50.234;19.292;2023-06-24T15:36:19;5.90;;;3.70;;
69126;SDS011;56688;50.234;19.292;2023-06-24T15:38:48;4.90;;;3.70;;
69126;SDS011;56688;50.234;19.292;2023-06-24T15:41:15;4.40;;;4.00;;
69126;SDS011;56688;50.234;19.292;2023-06-24T15:43:42;7.90;;;3.90;;
69126;SDS011;56688;50.234;19.292;2023-06-24T15:46:09;5.50;;;3.50;;